sensor_id;sensor_type;location;lat;lon;timestamp;pressure;altitude;pressure_sealevel;temperature
63220;BMP180;49320;52.512;13.448;2022-10-22T00:00:07;100591.00;;;21.70
63220;BMP180;49320;52.512;13.448;2022-10-22T00:02:34;100615.00;;;21.70
63220;BMP180;49320;52.512;13.448;2022-10-22T00:05:01;100616.00;;;21.60
63220;BMP180;49320;52.512;13.448;2022-10-22T00:07:28;100621.00;;;21.60
63220;BMP180;49320;52.512;13.448;2022-10-22T00:09:54;100609.00;;;21.60
63220;BMP180;49320;52.512;13.448;2022-10-22T00:12:21;100610.00;;;21.60
63220;BMP180;49320;52.512;13.448;2022-10-22T00:14:48;100611.00;;;21.60
63220;BMP180;49320;52.512;13.448;2022-10-22T00:17:15;100613.00;;;21.60
63220;BMP180;49320;52.512;13.448;2022-10-22T00:19:43;100616.00;;;21.60
63220;BMP180;49320;52.512;13.448;2022-10-22T00:22:11;100617.00;;;21.60
63220;BMP180;49320;52.512;13.448;2022-10-22T00:24:38;100625.00;;;21.60
63220;BMP180;49320;52.512;13.448;2022-10-22T00:27:13;100614.00;;;21.60
63220;BMP180;49320;52.512;13.448;2022-10-22T00:29:40;100615.00;;;21.60
63220;BMP180;49320;52.512;13.448;2022-10-22T00:32:06;100603.00;;;21.60
63220;BMP180;49320;52.512;13.448;2022-10-22T00:34:33;100581.00;;;21.60
63220;BMP180;49320;52.512;13.448;2022-10-22T00:37:00;100586.00;;;21.60
63220;BMP180;49320;52.512;13.448;2022-10-22T00:39:28;100589.00;;;21.60
63220;BMP180;49320;52.512;13.448;2022-10-22T00:41:56;100586.00;;;21.60
63220;BMP180;49320;52.512;13.448;2022-10-22T00:50:33;100577.00;;;21.60
63220;BMP180;49320;52.512;13.448;2022-10-22T00:53:03;100590.00;;;21.60
63220;BMP180;49320;52.512;13.448;2022-10-22T00:55:32;100579.00;;;21.60
63220;BMP180;49320;52.512;13.448;2022-10-22T00:58:01;100595.00;;;21.60
63220;BMP180;49320;52.512;13.448;2022-10-22T01:00:29;100599.00;;;21.60
63220;BMP180;49320;52.512;13.448;2022-10-22T01:02:57;100606.00;;;21.60
63220;BMP180;49320;52.512;13.448;2022-10-22T01:05:28;100602.00;;;21.60
63220;BMP180;49320;52.512;13.448;2022-10-22T01:07:56;100610.00;;;21.60
63220;BMP180;49320;52.512;13.448;2022-10-22T01:10:48;100620.00;;;21.60
63220;BMP180;49320;52.512;13.448;2022-10-22T01:13:32;100621.00;;;21.60
63220;BMP180;49320;52.512;13.448;2022-10-22T01:16:11;100613.00;;;21.60
63220;BMP180;49320;52.512;13.448;2022-10-22T01:22:08;100618.00;;;21.60
63220;BMP180;49320;52.512;13.448;2022-10-22T01:25:11;100612.00;;;21.60
63220;BMP180;49320;52.512;13.448;2022-10-22T01:28:16;100605.00;;;21.60
63220;BMP180;49320;52.512;13.448;2022-10-22T01:30:46;100598.00;;;21.50
63220;BMP180;49320;52.512;13.448;2022-10-22T01:33:18;100603.00;;;21.60
63220;BMP180;49320;52.512;13.448;2022-10-22T01:35:47;100596.00;;;21.60
63220;BMP180;49320;52.512;13.448;2022-10-22T01:38:20;100588.00;;;21.60
63220;BMP180;49320;52.512;13.448;2022-10-22T01:40:49;100601.00;;;21.60
63220;BMP180;49320;52.512;13.448;2022-10-22T01:43:16;100597.00;;;21.60
63220;BMP180;49320;52.512;13.448;2022-10-22T01:45:51;100604.00;;;21.60
63220;BMP180;49320;52.512;13.448;2022-10-22T01:54:44;100599.00;;;21.50
63220;BMP180;49320;52.512;13.448;2022-10-22T01:58:12;100611.00;;;21.50
63220;BMP180;49320;52.512;13.448;2022-10-22T02:04:43;100613.00;;;21.40
63220;BMP180;49320;52.512;13.448;2022-10-22T02:07:17;100601.00;;;21.40
63220;BMP180;49320;52.512;13.448;2022-10-22T02:09:45;100598.00;;;21.40
63220;BMP180;49320;52.512;13.448;2022-10-22T02:12:14;100608.00;;;21.40
63220;BMP180;49320;52.512;13.448;2022-10-22T02:14:44;100619.00;;;21.40
63220;BMP180;49320;52.512;13.448;2022-10-22T02:17:17;100614.00;;;21.40
63220;BMP180;49320;52.512;13.448;2022-10-22T02:20:14;100624.00;;;21.40
63220;BMP180;49320;52.512;13.448;2022-10-22T02:22:42;100616.00;;;21.40
63220;BMP180;49320;52.512;13.448;2022-10-22T02:25:10;100604.00;;;21.40
63220;BMP180;49320;52.512;13.448;2022-10-22T02:27:46;100604.00;;;21.40
63220;BMP180;49320;52.512;13.448;2022-10-22T02:30:19;100608.00;;;21.40
63220;BMP180;49320;52.512;13.448;2022-10-22T02:33:09;100595.00;;;21.40
63220;BMP180;49320;52.512;13.448;2022-10-22T02:35:39;100594.00;;;21.40
63220;BMP180;49320;52.512;13.448;2022-10-22T02:38:08;100595.00;;;21.40
63220;BMP180;49320;52.512;13.448;2022-10-22T02:40:36;100606.00;;;21.40
63220;BMP180;49320;52.512;13.448;2022-10-22T02:43:04;100605.00;;;21.40
63220;BMP180;49320;52.512;13.448;2022-10-22T02:45:32;100600.00;;;21.30
63220;BMP180;49320;52.512;13.448;2022-10-22T02:48:01;100602.00;;;21.30
63220;BMP180;49320;52.512;13.448;2022-10-22T02:50:28;100612.00;;;21.30
63220;BMP180;49320;52.512;13.448;2022-10-22T02:52:55;100598.00;;;21.30
63220;BMP180;49320;52.512;13.448;2022-10-22T02:55:22;100619.00;;;21.30
63220;BMP180;49320;52.512;13.448;2022-10-22T02:57:49;100621.00;;;21.30
63220;BMP180;49320;52.512;13.448;2022-10-22T03:00:15;100629.00;;;21.20
63220;BMP180;49320;52.512;13.448;2022-10-22T03:02:42;100626.00;;;21.20
63220;BMP180;49320;52.512;13.448;2022-10-22T03:05:10;100628.00;;;21.20
63220;BMP180;49320;52.512;13.448;2022-10-22T03:07:37;100627.00;;;21.20
63220;BMP180;49320;52.512;13.448;2022-10-22T03:10:05;100610.00;;;21.20
63220;BMP180;49320;52.512;13.448;2022-10-22T03:12:31;100612.00;;;21.20
63220;BMP180;49320;52.512;13.448;2022-10-22T03:14:58;100607.00;;;21.20
63220;BMP180;49320;52.512;13.448;2022-10-22T03:17:25;100608.00;;;21.20
63220;BMP180;49320;52.512;13.448;2022-10-22T03:19:52;100594.00;;;21.20
63220;BMP180;49320;52.512;13.448;2022-10-22T03:22:24;100597.00;;;21.20
63220;BMP180;49320;52.512;13.448;2022-10-22T03:24:57;100595.00;;;21.20
63220;BMP180;49320;52.512;13.448;2022-10-22T03:27:28;100592.00;;;21.20
63220;BMP180;49320;52.512;13.448;2022-10-22T03:29:56;100597.00;;;21.20
63220;BMP180;49320;52.512;13.448;2022-10-22T03:32:23;100597.00;;;21.20
63220;BMP180;49320;52.512;13.448;2022-10-22T03:34:50;100600.00;;;21.20
63220;BMP180;49320;52.512;13.448;2022-10-22T03:37:17;100609.00;;;21.20
63220;BMP180;49320;52.512;13.448;2022-10-22T03:39:44;100615.00;;;21.20
63220;BMP180;49320;52.512;13.448;2022-10-22T03:42:12;100611.00;;;21.20
63220;BMP180;49320;52.512;13.448;2022-10-22T03:44:39;100609.00;;;21.20
63220;BMP180;49320;52.512;13.448;2022-10-22T03:47:06;100610.00;;;21.20
63220;BMP180;49320;52.512;13.448;2022-10-22T03:49:33;100607.00;;;21.20
63220;BMP180;49320;52.512;13.448;2022-10-22T03:52:09;100607.00;;;21.20
63220;BMP180;49320;52.512;13.448;2022-10-22T03:54:37;100612.00;;;21.20
63220;BMP180;49320;52.512;13.448;2022-10-22T03:57:09;100613.00;;;21.20
63220;BMP180;49320;52.512;13.448;2022-10-22T03:59:44;100618.00;;;21.20
63220;BMP180;49320;52.512;13.448;2022-10-22T04:02:12;100616.00;;;21.20
63220;BMP180;49320;52.512;13.448;2022-10-22T04:04:39;100612.00;;;21.20
63220;BMP180;49320;52.512;13.448;2022-10-22T04:07:07;100620.00;;;21.20
63220;BMP180;49320;52.512;13.448;2022-10-22T04:09:35;100615.00;;;21.20
63220;BMP180;49320;52.512;13.448;2022-10-22T04:12:03;100627.00;;;21.20
63220;BMP180;49320;52.512;13.448;2022-10-22T04:14:32;100632.00;;;21.20
63220;BMP180;49320;52.512;13.448;2022-10-22T04:16:59;100635.00;;;21.20
63220;BMP180;49320;52.512;13.448;2022-10-22T04:19:26;100635.00;;;21.20
63220;BMP180;49320;52.512;13.448;2022-10-22T04:21:53;100636.00;;;21.20
63220;BMP180;49320;52.512;13.448;2022-10-22T04:24:20;100645.00;;;21.20
63220;BMP180;49320;52.512;13.448;2022-10-22T04:26:47;100645.00;;;21.20
63220;BMP180;49320;52.512;13.448;2022-10-22T04:29:13;100656.00;;;21.20
63220;BMP180;49320;52.512;13.448;2022-10-22T04:31:42;100653.00;;;21.20
63220;BMP180;49320;52.512;13.448;2022-10-22T04:34:09;100659.00;;;21.20
63220;BMP180;49320;52.512;13.448;2022-10-22T04:36:36;100658.00;;;21.20
63220;BMP180;49320;52.512;13.448;2022-10-22T04:39:03;100649.00;;;21.20
63220;BMP180;49320;52.512;13.448;2022-10-22T04:41:38;100647.00;;;21.20
63220;BMP180;49320;52.512;13.448;2022-10-22T04:44:06;100644.00;;;21.20
63220;BMP180;49320;52.512;13.448;2022-10-22T04:46:41;100642.00;;;21.20
63220;BMP180;49320;52.512;13.448;2022-10-22T04:49:08;100641.00;;;21.20
63220;BMP180;49320;52.512;13.448;2022-10-22T04:51:35;100634.00;;;21.20
63220;BMP180;49320;52.512;13.448;2022-10-22T04:54:01;100641.00;;;21.20
63220;BMP180;49320;52.512;13.448;2022-10-22T04:56:30;100643.00;;;21.10
63220;BMP180;49320;52.512;13.448;2022-10-22T04:59:02;100637.00;;;21.10
63220;BMP180;49320;52.512;13.448;2022-10-22T05:01:38;100637.00;;;21.20
63220;BMP180;49320;52.512;13.448;2022-10-22T05:04:15;100641.00;;;21.20
63220;BMP180;49320;52.512;13.448;2022-10-22T05:06:43;100636.00;;;21.10
63220;BMP180;49320;52.512;13.448;2022-10-22T05:09:18;100635.00;;;21.10
63220;BMP180;49320;52.512;13.448;2022-10-22T05:11:50;100635.00;;;21.10
63220;BMP180;49320;52.512;13.448;2022-10-22T05:14:21;100624.00;;;21.10
63220;BMP180;49320;52.512;13.448;2022-10-22T05:16:49;100629.00;;;21.10
63220;BMP180;49320;52.512;13.448;2022-10-22T05:19:29;100643.00;;;21.10
63220;BMP180;49320;52.512;13.448;2022-10-22T05:22:02;100637.00;;;21.00
63220;BMP180;49320;52.512;13.448;2022-10-22T05:24:33;100643.00;;;21.00
63220;BMP180;49320;52.512;13.448;2022-10-22T05:27:00;100640.00;;;21.00
63220;BMP180;49320;52.512;13.448;2022-10-22T05:29:26;100642.00;;;21.00
63220;BMP180;49320;52.512;13.448;2022-10-22T05:31:54;100645.00;;;20.90
63220;BMP180;49320;52.512;13.448;2022-10-22T05:34:20;100643.00;;;20.90
63220;BMP180;49320;52.512;13.448;2022-10-22T05:36:47;100651.00;;;20.90
63220;BMP180;49320;52.512;13.448;2022-10-22T05:39:14;100647.00;;;20.90
63220;BMP180;49320;52.512;13.448;2022-10-22T05:41:41;100648.00;;;20.90
63220;BMP180;49320;52.512;13.448;2022-10-22T05:44:11;100647.00;;;20.90
63220;BMP180;49320;52.512;13.448;2022-10-22T05:46:38;100650.00;;;20.90
63220;BMP180;49320;52.512;13.448;2022-10-22T05:49:06;100662.00;;;20.90
63220;BMP180;49320;52.512;13.448;2022-10-22T05:51:35;100666.00;;;20.90
63220;BMP180;49320;52.512;13.448;2022-10-22T05:54:05;100660.00;;;20.80
63220;BMP180;49320;52.512;13.448;2022-10-22T05:56:34;100670.00;;;20.80
63220;BMP180;49320;52.512;13.448;2022-10-22T05:59:02;100679.00;;;20.80
63220;BMP180;49320;52.512;13.448;2022-10-22T06:01:32;100677.00;;;20.80
63220;BMP180;49320;52.512;13.448;2022-10-22T06:04:02;100677.00;;;20.80
63220;BMP180;49320;52.512;13.448;2022-10-22T06:06:36;100675.00;;;20.80
63220;BMP180;49320;52.512;13.448;2022-10-22T06:09:26;100666.00;;;20.80
63220;BMP180;49320;52.512;13.448;2022-10-22T06:11:54;100655.00;;;20.80
63220;BMP180;49320;52.512;13.448;2022-10-22T06:14:23;100666.00;;;20.80
63220;BMP180;49320;52.512;13.448;2022-10-22T06:16:51;100664.00;;;20.80
63220;BMP180;49320;52.512;13.448;2022-10-22T06:19:21;100670.00;;;20.80
63220;BMP180;49320;52.512;13.448;2022-10-22T06:21:49;100671.00;;;20.80
63220;BMP180;49320;52.512;13.448;2022-10-22T06:24:15;100668.00;;;20.80
63220;BMP180;49320;52.512;13.448;2022-10-22T06:26:43;100675.00;;;20.80
63220;BMP180;49320;52.512;13.448;2022-10-22T06:29:10;100687.00;;;20.80
63220;BMP180;49320;52.512;13.448;2022-10-22T06:31:37;100694.00;;;20.80
63220;BMP180;49320;52.512;13.448;2022-10-22T06:34:07;100693.00;;;20.80
63220;BMP180;49320;52.512;13.448;2022-10-22T06:36:35;100700.00;;;20.80
63220;BMP180;49320;52.512;13.448;2022-10-22T06:39:03;100703.00;;;20.80
63220;BMP180;49320;52.512;13.448;2022-10-22T06:41:30;100707.00;;;20.90
63220;BMP180;49320;52.512;13.448;2022-10-22T06:43:57;100699.00;;;20.90
63220;BMP180;49320;52.512;13.448;2022-10-22T06:46:25;100706.00;;;20.90
63220;BMP180;49320;52.512;13.448;2022-10-22T06:48:59;100719.00;;;21.00
63220;BMP180;49320;52.512;13.448;2022-10-22T06:51:27;100719.00;;;21.00
63220;BMP180;49320;52.512;13.448;2022-10-22T06:53:55;100717.00;;;21.00
63220;BMP180;49320;52.512;13.448;2022-10-22T06:56:25;100723.00;;;21.10
63220;BMP180;49320;52.512;13.448;2022-10-22T06:58:55;100726.00;;;21.10
63220;BMP180;49320;52.512;13.448;2022-10-22T07:01:28;100726.00;;;21.10
63220;BMP180;49320;52.512;13.448;2022-10-22T07:03:56;100717.00;;;21.10
63220;BMP180;49320;52.512;13.448;2022-10-22T07:06:24;100713.00;;;21.10
63220;BMP180;49320;52.512;13.448;2022-10-22T07:08:54;100722.00;;;21.10
63220;BMP180;49320;52.512;13.448;2022-10-22T07:11:25;100711.00;;;21.20
63220;BMP180;49320;52.512;13.448;2022-10-22T07:13:58;100724.00;;;21.20
63220;BMP180;49320;52.512;13.448;2022-10-22T07:16:25;100732.00;;;21.20
63220;BMP180;49320;52.512;13.448;2022-10-22T07:19:01;100712.00;;;21.30
63220;BMP180;49320;52.512;13.448;2022-10-22T07:21:29;100727.00;;;21.30
63220;BMP180;49320;52.512;13.448;2022-10-22T07:23:57;100729.00;;;21.30
63220;BMP180;49320;52.512;13.448;2022-10-22T07:26:26;100728.00;;;21.30
63220;BMP180;49320;52.512;13.448;2022-10-22T07:28:57;100742.00;;;21.40
63220;BMP180;49320;52.512;13.448;2022-10-22T07:31:25;100736.00;;;21.40
63220;BMP180;49320;52.512;13.448;2022-10-22T07:33:52;100730.00;;;21.40
63220;BMP180;49320;52.512;13.448;2022-10-22T07:36:18;100734.00;;;21.50
63220;BMP180;49320;52.512;13.448;2022-10-22T07:38:52;100737.00;;;21.50
63220;BMP180;49320;52.512;13.448;2022-10-22T07:41:19;100751.00;;;21.60
63220;BMP180;49320;52.512;13.448;2022-10-22T07:43:45;100757.00;;;21.60
63220;BMP180;49320;52.512;13.448;2022-10-22T07:46:12;100771.00;;;21.70
63220;BMP180;49320;52.512;13.448;2022-10-22T07:48:39;100773.00;;;21.70
63220;BMP180;49320;52.512;13.448;2022-10-22T07:51:07;100783.00;;;21.80
63220;BMP180;49320;52.512;13.448;2022-10-22T07:53:33;100786.00;;;21.80
63220;BMP180;49320;52.512;13.448;2022-10-22T07:56:01;100777.00;;;21.90
63220;BMP180;49320;52.512;13.448;2022-10-22T07:58:28;100784.00;;;21.90
63220;BMP180;49320;52.512;13.448;2022-10-22T08:00:57;100774.00;;;22.00
63220;BMP180;49320;52.512;13.448;2022-10-22T08:03:24;100775.00;;;22.00
63220;BMP180;49320;52.512;13.448;2022-10-22T08:05:51;100785.00;;;22.10
63220;BMP180;49320;52.512;13.448;2022-10-22T08:08:19;100783.00;;;22.10
63220;BMP180;49320;52.512;13.448;2022-10-22T08:10:48;100791.00;;;22.10
63220;BMP180;49320;52.512;13.448;2022-10-22T08:13:16;100790.00;;;22.20
63220;BMP180;49320;52.512;13.448;2022-10-22T08:15:43;100788.00;;;22.20
63220;BMP180;49320;52.512;13.448;2022-10-22T08:18:11;100788.00;;;22.20
63220;BMP180;49320;52.512;13.448;2022-10-22T08:20:38;100791.00;;;22.30
63220;BMP180;49320;52.512;13.448;2022-10-22T08:23:05;100787.00;;;22.30
63220;BMP180;49320;52.512;13.448;2022-10-22T08:25:32;100790.00;;;22.30
63220;BMP180;49320;52.512;13.448;2022-10-22T08:27:59;100793.00;;;22.40
63220;BMP180;49320;52.512;13.448;2022-10-22T08:30:26;100791.00;;;22.40
63220;BMP180;49320;52.512;13.448;2022-10-22T08:32:55;100798.00;;;22.40
63220;BMP180;49320;52.512;13.448;2022-10-22T08:35:22;100795.00;;;22.40
63220;BMP180;49320;52.512;13.448;2022-10-22T08:37:49;100803.00;;;22.50
63220;BMP180;49320;52.512;13.448;2022-10-22T08:40:36;100811.00;;;22.50
63220;BMP180;49320;52.512;13.448;2022-10-22T08:43:50;100820.00;;;22.50
63220;BMP180;49320;52.512;13.448;2022-10-22T08:49:03;100812.00;;;22.50
63220;BMP180;49320;52.512;13.448;2022-10-22T08:51:35;100814.00;;;22.60
63220;BMP180;49320;52.512;13.448;2022-10-22T08:54:24;100821.00;;;22.60
63220;BMP180;49320;52.512;13.448;2022-10-22T08:59:53;100822.00;;;22.70
63220;BMP180;49320;52.512;13.448;2022-10-22T09:02:55;100821.00;;;22.70
63220;BMP180;49320;52.512;13.448;2022-10-22T09:06:00;100833.00;;;22.80
63220;BMP180;49320;52.512;13.448;2022-10-22T09:08:28;100835.00;;;22.80
63220;BMP180;49320;52.512;13.448;2022-10-22T09:11:13;100836.00;;;22.90
63220;BMP180;49320;52.512;13.448;2022-10-22T09:13:44;100839.00;;;22.90
63220;BMP180;49320;52.512;13.448;2022-10-22T09:25:30;100844.00;;;23.00
63220;BMP180;49320;52.512;13.448;2022-10-22T09:27:58;100839.00;;;23.10
63220;BMP180;49320;52.512;13.448;2022-10-22T09:30:33;100848.00;;;23.10
63220;BMP180;49320;52.512;13.448;2022-10-22T09:35:56;100838.00;;;23.20
63220;BMP180;49320;52.512;13.448;2022-10-22T09:38:33;100850.00;;;23.40
63220;BMP180;49320;52.512;13.448;2022-10-22T09:41:04;100850.00;;;23.40
63220;BMP180;49320;52.512;13.448;2022-10-22T09:43:32;100847.00;;;23.50
63220;BMP180;49320;52.512;13.448;2022-10-22T09:46:06;100859.00;;;23.60
63220;BMP180;49320;52.512;13.448;2022-10-22T09:48:40;100864.00;;;23.70
63220;BMP180;49320;52.512;13.448;2022-10-22T09:51:35;100860.00;;;23.70
63220;BMP180;49320;52.512;13.448;2022-10-22T09:57:14;100857.00;;;23.90
63220;BMP180;49320;52.512;13.448;2022-10-22T09:59:50;100864.00;;;24.00
63220;BMP180;49320;52.512;13.448;2022-10-22T10:02:23;100868.00;;;24.00
63220;BMP180;49320;52.512;13.448;2022-10-22T10:05:04;100860.00;;;24.10
63220;BMP180;49320;52.512;13.448;2022-10-22T10:07:34;100863.00;;;24.10
63220;BMP180;49320;52.512;13.448;2022-10-22T10:10:01;100853.00;;;24.10
63220;BMP180;49320;52.512;13.448;2022-10-22T10:12:53;100869.00;;;24.20
63220;BMP180;49320;52.512;13.448;2022-10-22T10:15:40;100866.00;;;24.30
63220;BMP180;49320;52.512;13.448;2022-10-22T10:18:55;100865.00;;;24.30
63220;BMP180;49320;52.512;13.448;2022-10-22T10:21:54;100873.00;;;24.30
63220;BMP180;49320;52.512;13.448;2022-10-22T10:24:55;100868.00;;;24.30
63220;BMP180;49320;52.512;13.448;2022-10-22T10:27:39;100872.00;;;24.30
63220;BMP180;49320;52.512;13.448;2022-10-22T10:30:18;100870.00;;;24.40
63220;BMP180;49320;52.512;13.448;2022-10-22T10:33:29;100874.00;;;24.40
63220;BMP180;49320;52.512;13.448;2022-10-22T10:38:47;100866.00;;;24.40
63220;BMP180;49320;52.512;13.448;2022-10-22T10:44:58;100867.00;;;24.40
63220;BMP180;49320;52.512;13.448;2022-10-22T10:48:14;100863.00;;;24.50
63220;BMP180;49320;52.512;13.448;2022-10-22T10:51:06;100869.00;;;24.50
63220;BMP180;49320;52.512;13.448;2022-10-22T10:53:58;100862.00;;;24.50
63220;BMP180;49320;52.512;13.448;2022-10-22T10:56:49;100856.00;;;24.50
63220;BMP180;49320;52.512;13.448;2022-10-22T10:59:48;100866.00;;;24.50
63220;BMP180;49320;52.512;13.448;2022-10-22T11:03:00;100875.00;;;24.50
63220;BMP180;49320;52.512;13.448;2022-10-22T11:05:57;100879.00;;;24.50
63220;BMP180;49320;52.512;13.448;2022-10-22T11:08:40;100874.00;;;24.60
63220;BMP180;49320;52.512;13.448;2022-10-22T11:17:39;100870.00;;;25.00
63220;BMP180;49320;52.512;13.448;2022-10-22T11:20:26;100875.00;;;25.10
63220;BMP180;49320;52.512;13.448;2022-10-22T11:23:10;100871.00;;;25.30
63220;BMP180;49320;52.512;13.448;2022-10-22T11:25:49;100873.00;;;25.40
63220;BMP180;49320;52.512;13.448;2022-10-22T11:28:32;100867.00;;;25.50
63220;BMP180;49320;52.512;13.448;2022-10-22T11:31:23;100870.00;;;25.60
63220;BMP180;49320;52.512;13.448;2022-10-22T11:34:04;100870.00;;;25.60
63220;BMP180;49320;52.512;13.448;2022-10-22T11:36:55;100868.00;;;25.60
63220;BMP180;49320;52.512;13.448;2022-10-22T11:39:56;100878.00;;;25.60
63220;BMP180;49320;52.512;13.448;2022-10-22T11:42:38;100873.00;;;25.60
63220;BMP180;49320;52.512;13.448;2022-10-22T11:45:33;100879.00;;;25.60
63220;BMP180;49320;52.512;13.448;2022-10-22T11:53:31;100877.00;;;25.50
63220;BMP180;49320;52.512;13.448;2022-10-22T11:58:43;100874.00;;;25.40
63220;BMP180;49320;52.512;13.448;2022-10-22T12:03:42;100867.00;;;25.30
63220;BMP180;49320;52.512;13.448;2022-10-22T12:11:39;100873.00;;;25.10
63220;BMP180;49320;52.512;13.448;2022-10-22T12:14:32;100873.00;;;25.00
63220;BMP180;49320;52.512;13.448;2022-10-22T12:17:09;100874.00;;;25.00
63220;BMP180;49320;52.512;13.448;2022-10-22T12:19:42;100874.00;;;25.00
63220;BMP180;49320;52.512;13.448;2022-10-22T12:22:28;100878.00;;;25.00
63220;BMP180;49320;52.512;13.448;2022-10-22T12:25:00;100884.00;;;24.90
63220;BMP180;49320;52.512;13.448;2022-10-22T12:27:38;100874.00;;;24.90
63220;BMP180;49320;52.512;13.448;2022-10-22T12:30:23;100881.00;;;24.90
63220;BMP180;49320;52.512;13.448;2022-10-22T12:32:56;100877.00;;;24.90
63220;BMP180;49320;52.512;13.448;2022-10-22T12:35:31;100872.00;;;24.80
63220;BMP180;49320;52.512;13.448;2022-10-22T12:38:13;100878.00;;;24.80
63220;BMP180;49320;52.512;13.448;2022-10-22T12:40:41;100878.00;;;24.80
63220;BMP180;49320;52.512;13.448;2022-10-22T12:43:27;100876.00;;;24.80
63220;BMP180;49320;52.512;13.448;2022-10-22T12:45:55;100867.00;;;24.80
63220;BMP180;49320;52.512;13.448;2022-10-22T12:48:29;100876.00;;;24.80
63220;BMP180;49320;52.512;13.448;2022-10-22T12:51:02;100879.00;;;24.80
63220;BMP180;49320;52.512;13.448;2022-10-22T12:53:33;100871.00;;;24.80
63220;BMP180;49320;52.512;13.448;2022-10-22T12:56:09;100872.00;;;24.80
63220;BMP180;49320;52.512;13.448;2022-10-22T12:58:48;100874.00;;;24.80
63220;BMP180;49320;52.512;13.448;2022-10-22T13:01:17;100876.00;;;24.80
63220;BMP180;49320;52.512;13.448;2022-10-22T13:03:50;100870.00;;;24.80
63220;BMP180;49320;52.512;13.448;2022-10-22T13:06:28;100882.00;;;24.80
63220;BMP180;49320;52.512;13.448;2022-10-22T13:11:51;100879.00;;;24.90
63220;BMP180;49320;52.512;13.448;2022-10-22T13:14:29;100860.00;;;24.90
63220;BMP180;49320;52.512;13.448;2022-10-22T13:22:36;100883.00;;;25.00
63220;BMP180;49320;52.512;13.448;2022-10-22T13:30:36;100880.00;;;25.00
63220;BMP180;49320;52.512;13.448;2022-10-22T13:33:24;100880.00;;;25.00
63220;BMP180;49320;52.512;13.448;2022-10-22T13:35:54;100882.00;;;25.00
63220;BMP180;49320;52.512;13.448;2022-10-22T13:38:24;100882.00;;;25.00
63220;BMP180;49320;52.512;13.448;2022-10-22T13:40:51;100885.00;;;25.10
63220;BMP180;49320;52.512;13.448;2022-10-22T13:43:19;100890.00;;;25.10
63220;BMP180;49320;52.512;13.448;2022-10-22T13:45:51;100882.00;;;25.00
63220;BMP180;49320;52.512;13.448;2022-10-22T13:48:21;100885.00;;;25.00
63220;BMP180;49320;52.512;13.448;2022-10-22T13:50:50;100883.00;;;25.00
63220;BMP180;49320;52.512;13.448;2022-10-22T13:53:23;100897.00;;;25.00
63220;BMP180;49320;52.512;13.448;2022-10-22T13:55:50;100889.00;;;25.00
63220;BMP180;49320;52.512;13.448;2022-10-22T13:58:21;100894.00;;;25.00
63220;BMP180;49320;52.512;13.448;2022-10-22T14:00:54;100893.00;;;25.00
63220;BMP180;49320;52.512;13.448;2022-10-22T14:03:30;100899.00;;;25.10
63220;BMP180;49320;52.512;13.448;2022-10-22T14:05:58;100907.00;;;25.10
63220;BMP180;49320;52.512;13.448;2022-10-22T14:08:26;100909.00;;;25.10
63220;BMP180;49320;52.512;13.448;2022-10-22T14:10:54;100904.00;;;25.10
63220;BMP180;49320;52.512;13.448;2022-10-22T14:13:21;100909.00;;;25.10
63220;BMP180;49320;52.512;13.448;2022-10-22T14:15:50;100905.00;;;25.10
63220;BMP180;49320;52.512;13.448;2022-10-22T14:18:26;100905.00;;;25.10
63220;BMP180;49320;52.512;13.448;2022-10-22T14:21:01;100911.00;;;25.10
63220;BMP180;49320;52.512;13.448;2022-10-22T14:23:34;100914.00;;;25.10
63220;BMP180;49320;52.512;13.448;2022-10-22T14:26:03;100912.00;;;25.20
63220;BMP180;49320;52.512;13.448;2022-10-22T14:28:29;100907.00;;;25.20
63220;BMP180;49320;52.512;13.448;2022-10-22T14:31:02;100912.00;;;25.20
63220;BMP180;49320;52.512;13.448;2022-10-22T14:33:32;100914.00;;;25.20
63220;BMP180;49320;52.512;13.448;2022-10-22T14:36:00;100926.00;;;25.20
63220;BMP180;49320;52.512;13.448;2022-10-22T14:38:27;100922.00;;;25.20
63220;BMP180;49320;52.512;13.448;2022-10-22T14:40:54;100923.00;;;25.20
63220;BMP180;49320;52.512;13.448;2022-10-22T14:43:27;100920.00;;;25.20
63220;BMP180;49320;52.512;13.448;2022-10-22T14:45:54;100915.00;;;25.10
63220;BMP180;49320;52.512;13.448;2022-10-22T14:48:21;100923.00;;;25.10
63220;BMP180;49320;52.512;13.448;2022-10-22T14:50:49;100927.00;;;25.10
63220;BMP180;49320;52.512;13.448;2022-10-22T14:53:16;100927.00;;;25.10
63220;BMP180;49320;52.512;13.448;2022-10-22T14:55:46;100925.00;;;25.10
63220;BMP180;49320;52.512;13.448;2022-10-22T14:58:14;100919.00;;;25.10
63220;BMP180;49320;52.512;13.448;2022-10-22T15:00:42;100929.00;;;25.00
63220;BMP180;49320;52.512;13.448;2022-10-22T15:03:09;100938.00;;;25.00
63220;BMP180;49320;52.512;13.448;2022-10-22T15:05:42;100930.00;;;25.00
63220;BMP180;49320;52.512;13.448;2022-10-22T15:08:12;100929.00;;;25.00
63220;BMP180;49320;52.512;13.448;2022-10-22T15:10:40;100933.00;;;25.00
63220;BMP180;49320;52.512;13.448;2022-10-22T15:13:08;100936.00;;;24.90
63220;BMP180;49320;52.512;13.448;2022-10-22T15:15:35;100942.00;;;24.90
63220;BMP180;49320;52.512;13.448;2022-10-22T15:18:05;100935.00;;;24.90
63220;BMP180;49320;52.512;13.448;2022-10-22T15:20:32;100933.00;;;24.90
63220;BMP180;49320;52.512;13.448;2022-10-22T15:22:59;100932.00;;;24.80
63220;BMP180;49320;52.512;13.448;2022-10-22T15:25:26;100941.00;;;24.80
63220;BMP180;49320;52.512;13.448;2022-10-22T15:27:52;100929.00;;;24.80
63220;BMP180;49320;52.512;13.448;2022-10-22T15:30:27;100943.00;;;24.70
63220;BMP180;49320;52.512;13.448;2022-10-22T15:32:54;100950.00;;;24.70
63220;BMP180;49320;52.512;13.448;2022-10-22T15:35:21;100949.00;;;24.70
63220;BMP180;49320;52.512;13.448;2022-10-22T15:37:50;100953.00;;;24.60